createdAt,value
2022-11-01T00:48:25.761Z,10.95
2022-11-01T00:49:25.452Z,10.90
2022-11-01T01:17:16.844Z,10.67
2022-11-01T01:18:16.713Z,10.64
2022-11-01T01:33:54.334Z,10.61
2022-11-01T01:34:54.000Z,10.70
2022-11-01T01:52:02.280Z,10.35
2022-11-01T01:53:02.469Z,10.27
2022-11-01T02:08:39.856Z,10.24
2022-11-01T02:09:39.866Z,10.26
2022-11-01T02:10:39.791Z,10.23
2022-11-01T02:11:39.523Z,10.23
2022-11-01T02:12:39.577Z,10.23
2022-11-01T02:13:39.381Z,10.23
2022-11-01T02:14:39.306Z,10.27
2022-11-01T02:15:39.244Z,10.23
2022-11-01T02:16:39.179Z,10.24
2022-11-01T02:17:39.103Z,10.27
2022-11-01T02:18:39.045Z,10.30
2022-11-01T02:19:38.976Z,10.28
2022-11-01T02:20:38.918Z,10.35
2022-11-01T02:32:12.281Z,10.12
2022-11-01T02:33:12.151Z,10.18
2022-11-01T02:38:21.250Z,10.10
2022-11-01T02:39:21.391Z,10.09
2022-11-01T02:45:51.061Z,10.35
2022-11-01T02:46:50.571Z,10.28
2022-11-01T02:47:50.561Z,10.21
2022-11-01T02:48:50.328Z,10.35
2022-11-01T02:49:50.393Z,10.24
2022-11-01T02:50:50.160Z,10.23
2022-11-01T02:51:50.096Z,10.28
2022-11-01T02:52:50.023Z,10.35
2022-11-01T02:53:49.974Z,10.31
2022-11-01T02:54:49.897Z,10.31
2022-11-01T02:55:49.844Z,10.36
2022-11-01T02:56:49.766Z,10.27
2022-11-01T02:57:49.694Z,10.24
2022-11-01T03:04:46.225Z,10.24
2022-11-01T03:05:47.909Z,10.18
2022-11-01T03:06:47.692Z,10.27
2022-11-01T03:07:47.544Z,10.17
2022-11-01T03:08:45.790Z,10.18
2022-11-01T03:09:45.443Z,10.20
2022-11-01T03:10:45.409Z,10.17
2022-11-01T03:11:45.295Z,10.21
2022-11-01T03:12:45.216Z,10.23
2022-11-01T03:13:45.150Z,10.14
2022-11-01T03:14:45.111Z,10.10
2022-11-01T03:15:45.049Z,10.08
2022-11-01T03:16:44.962Z,10.09
2022-11-01T03:17:44.887Z,10.01
2022-11-01T03:18:44.839Z,9.99
2022-11-01T03:19:44.777Z,10.03
2022-11-01T03:20:44.703Z,9.94
2022-11-01T03:21:44.666Z,9.96
2022-11-01T03:22:44.574Z,9.96
2022-11-01T03:23:44.495Z,10.02
2022-11-01T03:24:44.430Z,10.01
2022-11-01T03:25:44.463Z,10.03
2022-11-01T03:26:44.308Z,9.96
2022-11-01T03:27:44.236Z,9.98
2022-11-01T03:28:44.262Z,9.98
2022-11-01T03:29:44.113Z,9.93
2022-11-01T03:30:44.040Z,9.83
2022-11-01T03:31:43.971Z,9.91
2022-11-01T03:32:43.909Z,9.77
2022-11-01T03:33:43.841Z,9.72
2022-11-01T03:34:43.773Z,9.75
2022-11-01T03:35:43.707Z,9.67
2022-11-01T03:36:43.642Z,9.65
2022-11-01T03:37:43.580Z,9.69
2022-11-01T03:38:43.512Z,9.77
2022-11-01T03:39:43.471Z,9.72
2022-11-01T03:40:43.398Z,9.75
2022-11-01T03:41:43.314Z,9.78
2022-11-01T03:42:43.248Z,9.77
2022-11-01T03:43:43.197Z,9.83
2022-11-01T03:44:43.114Z,9.83
2022-11-01T03:45:43.086Z,9.88
2022-11-01T03:46:42.987Z,9.81
2022-11-01T03:47:42.943Z,9.77
2022-11-01T03:48:42.854Z,9.87
2022-11-01T03:49:42.809Z,9.80
2022-11-01T03:50:42.730Z,9.80
2022-11-01T03:51:42.663Z,9.77
2022-11-01T03:52:42.592Z,9.75
2022-11-01T03:53:42.543Z,9.83
2022-11-01T03:54:42.460Z,9.81
2022-11-01T03:55:42.401Z,9.78
2022-11-01T03:56:42.350Z,9.78
2022-11-01T03:57:42.266Z,9.87
2022-11-01T03:58:42.202Z,9.80
2022-11-01T03:59:42.148Z,9.81
2022-11-01T04:00:42.194Z,9.90
2022-11-01T04:01:42.182Z,10.01
2022-11-01T04:02:41.936Z,10.03
2022-11-01T04:03:41.871Z,9.96
2022-11-01T04:04:41.843Z,10.03
2022-11-01T04:05:41.737Z,9.99
2022-11-01T04:06:41.669Z,9.98
2022-11-01T04:07:41.618Z,10.08
2022-11-01T04:08:41.543Z,9.93
2022-11-01T04:09:41.472Z,9.99
2022-11-01T04:10:41.410Z,10.01
2022-11-01T04:11:41.344Z,10.02
2022-11-01T04:12:41.275Z,10.09
2022-11-01T04:13:41.225Z,10.03
2022-11-01T04:14:41.152Z,10.02
2022-11-01T04:15:41.128Z,10.05
2022-11-01T04:16:41.066Z,9.99
2022-11-01T04:17:40.956Z,10.06
2022-11-01T04:19:40.815Z,10.08
2022-11-01T04:20:40.753Z,10.09
2022-11-01T04:21:40.682Z,10.06
2022-11-01T04:22:40.629Z,10.03
2022-11-01T04:23:40.569Z,10.02
2022-11-01T04:24:40.491Z,10.12
2022-11-01T04:25:40.421Z,10.02
2022-11-01T04:26:40.384Z,10.10
2022-11-01T04:27:40.306Z,10.05
2022-11-01T04:28:40.228Z,9.99
2022-11-01T04:29:40.189Z,10.01
2022-11-01T04:30:40.126Z,10.03
2022-11-01T04:31:40.080Z,10.09
2022-11-01T04:32:39.969Z,10.05
2022-11-01T04:33:39.920Z,10.10
2022-11-01T04:34:39.833Z,10.12
2022-11-01T04:35:39.787Z,10.10
2022-11-01T04:36:39.705Z,10.12
2022-11-01T04:37:39.639Z,10.24
2022-11-01T04:38:39.570Z,10.17
2022-11-01T04:39:39.510Z,10.24
2022-11-01T04:40:39.460Z,10.23
2022-11-01T04:41:39.375Z,10.27
2022-11-01T04:42:39.308Z,10.30
2022-11-01T04:43:39.265Z,10.34
2022-11-01T04:44:39.205Z,10.26
2022-11-01T04:45:39.123Z,10.30
2022-11-01T04:46:39.049Z,10.38
2022-11-01T04:47:39.001Z,10.43
2022-11-01T04:48:38.925Z,10.45
2022-11-01T04:49:38.851Z,10.42
2022-11-01T04:50:38.793Z,10.45
2022-11-01T04:52:38.657Z,10.41
2022-11-01T04:53:38.587Z,10.28
2022-11-01T04:54:38.545Z,10.31
2022-11-01T04:55:38.460Z,10.34
2022-11-01T04:56:38.389Z,10.35
2022-11-01T04:57:38.348Z,10.24
2022-11-01T04:58:43.014Z,10.27
2022-11-01T04:59:38.224Z,10.34
2022-11-01T05:00:38.179Z,10.34
2022-11-01T05:01:38.234Z,10.38
2022-11-01T05:02:38.001Z,10.35
2022-11-01T05:03:37.932Z,10.43
2022-11-01T05:04:37.887Z,10.43
2022-11-01T05:14:37.236Z,10.46
2022-11-01T05:15:40.244Z,10.57
2022-11-01T05:32:47.536Z,10.76
2022-11-01T05:33:47.395Z,10.72
2022-11-01T05:35:52.759Z,10.72
2022-11-01T05:36:52.682Z,10.67
2022-11-01T05:40:17.541Z,10.72
2022-11-01T05:41:17.388Z,10.72
2022-11-01T05:42:17.291Z,10.70
2022-11-01T05:43:17.238Z,10.72
2022-11-01T05:44:17.163Z,10.70
2022-11-01T05:45:17.098Z,10.75
2022-11-01T05:46:17.036Z,10.73
2022-11-01T05:47:17.352Z,10.68
2022-11-01T05:48:16.912Z,10.68
2022-11-01T05:49:16.841Z,10.78
2022-11-01T05:50:16.896Z,10.75
2022-11-01T05:51:16.702Z,10.75
2022-11-01T09:04:17.420Z,15.70
2022-11-01T09:05:17.209Z,15.69
2022-11-01T09:08:53.131Z,15.70
2022-11-01T09:09:52.983Z,15.69
2022-11-01T09:14:49.324Z,15.66
2022-11-01T09:15:49.190Z,15.70
2022-11-01T09:19:25.239Z,15.72
2022-11-01T09:20:24.973Z,15.78
2022-11-01T09:23:49.866Z,15.95
2022-11-01T09:24:49.729Z,16.00
2022-11-01T09:28:27.821Z,16.14
2022-11-01T09:29:25.567Z,16.17
2022-11-01T09:30:25.437Z,16.22
2022-11-01T09:31:25.372Z,16.17
2022-11-01T09:32:25.306Z,16.21
2022-11-01T09:33:25.247Z,16.37
2022-11-01T09:34:25.182Z,16.26
2022-11-01T09:35:25.131Z,16.34
2022-11-01T09:36:25.074Z,16.39
2022-11-01T09:37:24.997Z,16.42
2022-11-01T09:38:24.931Z,16.51
2022-11-01T09:39:24.869Z,16.46
2022-11-01T09:40:24.823Z,16.51
2022-11-01T09:41:24.746Z,16.67
2022-11-01T10:40:14.198Z,17.25
2022-11-01T10:41:13.490Z,17.38
2022-11-01T15:46:38.368Z,16.94
2022-11-01T15:47:37.904Z,16.98
2022-11-01T17:34:48.198Z,15.63
2022-11-01T17:35:48.087Z,15.70
